createdAt,value
2019-03-10T00:01:59.349Z,100384.00
2019-03-10T00:04:27.498Z,100381.00
2019-03-10T00:06:55.732Z,100384.00
2019-03-10T00:09:23.736Z,100376.00
2019-03-10T00:11:51.762Z,100370.00
2019-03-10T00:14:19.891Z,100226.00
2019-03-10T00:16:47.998Z,100361.00
2019-03-10T00:19:16.196Z,100360.00
2019-03-10T00:21:44.247Z,100360.00
2019-03-10T00:24:12.355Z,100349.00
2019-03-10T00:26:40.413Z,100349.00
2019-03-10T00:29:08.643Z,100354.00
2019-03-10T00:31:36.670Z,100355.00
2019-03-10T00:34:04.657Z,100357.00
2019-03-10T00:36:34.579Z,100356.00
2019-03-10T00:39:45.978Z,100368.00
2019-03-10T00:43:10.451Z,100362.00
2019-03-10T00:46:45.697Z,100346.00
2019-03-10T00:50:18.643Z,100340.00
2019-03-10T00:52:57.379Z,100338.00
2019-03-10T00:55:36.208Z,100321.00
2019-03-10T00:58:04.711Z,100316.00
2019-03-10T01:00:32.988Z,100312.00
2019-03-10T01:03:01.390Z,100312.00
2019-03-10T01:05:32.176Z,100307.00
2019-03-10T01:08:00.989Z,100302.00
2019-03-10T01:10:31.048Z,100301.00
2019-03-10T01:13:00.791Z,100297.00
2019-03-10T01:15:30.317Z,100299.00
2019-03-10T01:17:59.600Z,100295.00
2019-03-10T01:20:29.246Z,100295.00
2019-03-10T01:22:58.968Z,100295.00
2019-03-10T01:42:56.861Z,100287.00
2019-03-10T01:45:24.880Z,100287.00
2019-03-10T01:47:53.119Z,100249.00
2019-03-10T01:50:22.174Z,100279.00
2019-03-10T01:52:51.080Z,100266.00
2019-03-10T01:55:19.161Z,100257.00
2019-03-10T01:57:47.189Z,100255.00
2019-03-10T02:00:19.567Z,100233.00
2019-03-10T02:02:47.482Z,100240.00
2019-03-10T02:05:15.524Z,100236.00
2019-03-10T02:07:44.057Z,100213.00
2019-03-10T02:10:12.009Z,100205.00
2019-03-10T02:12:39.988Z,100201.00
2019-03-10T02:15:11.450Z,100181.00
2019-03-10T02:17:39.354Z,100172.00
2019-03-10T02:20:10.196Z,100164.00
2019-03-10T02:22:38.119Z,100155.00
2019-03-10T02:25:06.017Z,100149.00
2019-03-10T02:27:34.895Z,100145.00
2019-03-10T02:30:03.276Z,100129.00
2019-03-10T02:32:31.272Z,100138.00
2019-03-10T02:34:59.195Z,100124.00
2019-03-10T02:37:27.157Z,100119.00
2019-03-10T02:39:55.046Z,100112.00
2019-03-10T02:42:23.022Z,100110.00
2019-03-10T02:44:51.230Z,100099.00
2019-03-10T02:47:19.125Z,100106.00
2019-03-10T02:49:47.007Z,100080.00
2019-03-10T02:52:14.890Z,100061.00
2019-03-10T02:54:43.889Z,100050.00
2019-03-10T02:57:11.742Z,100040.00
2019-03-10T02:59:39.657Z,100029.00
2019-03-10T03:02:07.557Z,100023.00
2019-03-10T03:04:35.495Z,100022.00
2019-03-10T03:07:03.412Z,100032.00
2019-03-10T03:09:31.404Z,100030.00
2019-03-10T03:11:59.312Z,100029.00
2019-03-10T03:14:27.203Z,100032.00
2019-03-10T03:16:55.102Z,100029.00
2019-03-10T03:19:22.974Z,100019.00
2019-03-10T03:21:50.896Z,100023.00
2019-03-10T03:24:18.815Z,100011.00
2019-03-10T03:26:46.754Z,100017.00
2019-03-10T03:29:14.671Z,99998.00
2019-03-10T03:31:42.582Z,99991.00
2019-03-10T03:34:10.513Z,99992.00
2019-03-10T03:36:38.564Z,99987.00
2019-03-10T03:39:26.135Z,99980.00
2019-03-10T03:41:54.079Z,99981.00
2019-03-10T03:44:22.000Z,99975.00
2019-03-10T03:46:49.907Z,99985.00
2019-03-10T03:49:17.851Z,99970.00
2019-03-10T03:51:45.738Z,99971.00
2019-03-10T03:54:13.609Z,99968.00
2019-03-10T03:56:41.500Z,99949.00
2019-03-10T03:59:09.388Z,99944.00
2019-03-10T04:01:59.075Z,99932.00
2019-03-10T04:04:26.980Z,99918.00
2019-03-10T04:06:54.856Z,99915.00
2019-03-10T04:09:22.705Z,99898.00
2019-03-10T04:11:50.675Z,99897.00
2019-03-10T04:14:18.576Z,99879.00
2019-03-10T04:16:46.495Z,99869.00
2019-03-10T04:19:14.385Z,99860.00
2019-03-10T04:21:42.261Z,99847.00
2019-03-10T04:24:10.186Z,99836.00
2019-03-10T04:26:38.086Z,99840.00
2019-03-10T04:29:05.968Z,99835.00
2019-03-10T04:31:33.857Z,99826.00
2019-03-10T04:34:01.849Z,99824.00
2019-03-10T04:36:29.809Z,99810.00
2019-03-10T04:38:57.710Z,99805.00
2019-03-10T04:41:25.642Z,99805.00
2019-03-10T04:43:53.609Z,99794.00
2019-03-10T04:46:21.550Z,99791.00
2019-03-10T04:48:49.463Z,99786.00
2019-03-10T04:51:17.433Z,99779.00
2019-03-10T04:53:45.322Z,99767.00
2019-03-10T04:56:47.771Z,99762.00
2019-03-10T04:59:15.680Z,99758.00
2019-03-10T05:01:43.607Z,99740.00
2019-03-10T05:04:11.493Z,99735.00
2019-03-10T05:06:39.415Z,99736.00
2019-03-10T05:09:09.421Z,99739.00
2019-03-10T05:11:37.485Z,99733.00
2019-03-10T05:14:05.421Z,99729.00
2019-03-10T05:16:33.335Z,99719.00
2019-03-10T05:19:02.322Z,99710.00
2019-03-10T05:21:30.219Z,99709.00
2019-03-10T05:24:11.738Z,99716.00
2019-03-10T05:26:39.602Z,99703.00
2019-03-10T05:29:07.622Z,99692.00
2019-03-10T05:31:35.534Z,99696.00
2019-03-10T05:34:03.434Z,99686.00
2019-03-10T05:36:31.357Z,99684.00
2019-03-10T05:38:59.218Z,99692.00
2019-03-10T05:41:27.097Z,99678.00
2019-03-10T05:43:55.185Z,99661.00
2019-03-10T05:46:23.177Z,99657.00
2019-03-10T05:48:51.147Z,99649.00
2019-03-10T05:51:19.077Z,99635.00
2019-03-10T05:53:47.076Z,99617.00
2019-03-10T05:56:15.011Z,99620.00
2019-03-10T05:58:42.942Z,99602.00
2019-03-10T06:01:10.825Z,99586.00
2019-03-10T06:03:38.756Z,99594.00
2019-03-10T06:06:06.790Z,99591.00
2019-03-10T06:08:34.811Z,99561.00
2019-03-10T06:11:02.785Z,99564.00
2019-03-10T06:13:30.737Z,99560.00
2019-03-10T06:15:58.650Z,99547.00
2019-03-10T06:18:26.572Z,99549.00
2019-03-10T06:20:54.505Z,99538.00
2019-03-10T06:23:22.384Z,99529.00
2019-03-10T06:25:50.363Z,99513.00
2019-03-10T06:28:18.283Z,99508.00
2019-03-10T06:30:46.268Z,99499.00
2019-03-10T06:33:14.171Z,99506.00
2019-03-10T06:35:43.086Z,99492.00
2019-03-10T06:38:10.994Z,99489.00
2019-03-10T06:40:38.897Z,99480.00
2019-03-10T06:43:06.782Z,99477.00
2019-03-10T06:45:34.729Z,99466.00
2019-03-10T06:48:02.704Z,99450.00
2019-03-10T06:50:30.662Z,99441.00
2019-03-10T06:52:58.540Z,99432.00
2019-03-10T06:55:26.525Z,99433.00
2019-03-10T06:57:54.421Z,99423.00
2019-03-10T07:00:22.443Z,99413.00
2019-03-10T07:02:50.339Z,99401.00
2019-03-10T07:05:19.267Z,99401.00
2019-03-10T07:07:47.358Z,99399.00
2019-03-10T07:10:15.218Z,99393.00
2019-03-10T07:12:43.215Z,99383.00
2019-03-10T07:15:12.212Z,99375.00
2019-03-10T07:17:40.730Z,99377.00
2019-03-10T07:20:11.986Z,99368.00
2019-03-10T07:22:39.932Z,99370.00
2019-03-10T07:25:07.945Z,99366.00
2019-03-10T07:27:45.299Z,99361.00
2019-03-10T07:30:35.877Z,99363.00
2019-03-10T07:33:17.011Z,99357.00
2019-03-10T07:36:04.554Z,99360.00
2019-03-10T07:38:56.308Z,99359.00
2019-03-10T07:41:43.868Z,99353.00
2019-03-10T07:44:31.462Z,99359.00
2019-03-10T07:47:28.938Z,99363.00
2019-03-10T07:50:08.744Z,99352.00
2019-03-10T07:52:43.898Z,99342.00
2019-03-10T07:55:40.587Z,99353.00
2019-03-10T07:58:34.237Z,99340.00
2019-03-10T08:01:13.260Z,99329.00
2019-03-10T08:03:55.442Z,99324.00
2019-03-10T08:06:45.075Z,99319.00
2019-03-10T08:09:35.554Z,99304.00
2019-03-10T08:12:23.183Z,99297.00
2019-03-10T08:15:09.185Z,99295.00
2019-03-10T08:17:46.036Z,99296.00
2019-03-10T08:20:32.266Z,99285.00
2019-03-10T08:23:10.968Z,99289.00
2019-03-10T08:25:52.933Z,99282.00
2019-03-10T08:28:29.855Z,99264.00
2019-03-10T08:31:17.431Z,99257.00
2019-03-10T08:34:07.770Z,99262.00
2019-03-10T08:37:07.456Z,99247.00
2019-03-10T08:40:10.022Z,99242.00
2019-03-10T08:43:06.674Z,99252.00
2019-03-10T08:45:43.522Z,99231.00
2019-03-10T08:48:31.159Z,99241.00
2019-03-10T08:51:18.688Z,99212.00
2019-03-10T08:54:06.400Z,99226.00
2019-03-10T08:56:51.003Z,99227.00
2019-03-10T08:59:37.307Z,99221.00
2019-03-10T09:02:31.026Z,99197.00
2019-03-10T09:05:11.859Z,99210.00
2019-03-10T09:07:51.825Z,99214.00
2019-03-10T09:10:42.039Z,99224.00
2019-03-10T09:13:19.757Z,99201.00
2019-03-10T09:16:25.283Z,99197.00
2019-03-10T09:19:12.898Z,99200.00
2019-03-10T09:21:55.643Z,99200.00
2019-03-10T09:24:55.137Z,99199.00
2019-03-10T09:27:41.197Z,99195.00
2019-03-10T09:30:26.914Z,99190.00
2019-03-10T09:33:21.167Z,99174.00
2019-03-10T09:35:56.731Z,99172.00
2019-03-10T09:38:44.991Z,99178.00
2019-03-10T09:41:50.726Z,99163.00
2019-03-10T09:44:50.644Z,99163.00
2019-03-10T09:47:34.755Z,99145.00
2019-03-10T09:50:11.093Z,99128.00
2019-03-10T09:53:07.314Z,99134.00
2019-03-10T09:55:55.967Z,99136.00
2019-03-10T09:58:40.444Z,99134.00
2019-03-10T10:01:26.793Z,99124.00
2019-03-10T10:04:20.324Z,99128.00
2019-03-10T10:07:20.953Z,99132.00
2019-03-10T10:10:07.698Z,99116.00
2019-03-10T10:13:01.058Z,99102.00
2019-03-10T10:16:00.666Z,99098.00
2019-03-10T10:18:54.275Z,99111.00
2019-03-10T10:21:45.130Z,99112.00
2019-03-10T10:24:23.495Z,99089.00
2019-03-10T10:27:09.483Z,99101.00
2019-03-10T10:29:57.344Z,99098.00
2019-03-10T10:32:47.627Z,99100.00
2019-03-10T10:35:50.077Z,99113.00
2019-03-10T10:38:46.655Z,99121.00
2019-03-10T10:41:29.157Z,99101.00
2019-03-10T10:44:13.946Z,99112.00
2019-03-10T10:46:58.341Z,99106.00
2019-03-10T10:50:03.337Z,99126.00
2019-03-10T10:52:46.853Z,99106.00
2019-03-10T10:55:37.246Z,99125.00
2019-03-10T10:58:16.087Z,99110.00
2019-03-10T11:01:13.363Z,99129.00
2019-03-10T11:04:19.115Z,99129.00
2019-03-10T11:07:12.523Z,99131.00
2019-03-10T11:10:12.274Z,99115.00
2019-03-10T11:12:58.463Z,99109.00
2019-03-10T11:15:36.092Z,99115.00
2019-03-10T11:18:21.669Z,99105.00
2019-03-10T11:21:09.451Z,99106.00
2019-03-10T11:23:57.145Z,99137.00
2019-03-10T11:26:33.758Z,99123.00
2019-03-10T11:29:19.989Z,99131.00
2019-03-10T11:31:59.437Z,99113.00
2019-03-10T11:35:02.398Z,99119.00
2019-03-10T11:38:06.221Z,99120.00
2019-03-10T11:40:56.690Z,99106.00
2019-03-10T11:43:57.649Z,99100.00
2019-03-10T11:46:49.061Z,99113.00
2019-03-10T11:49:40.560Z,99095.00
2019-03-10T11:52:46.063Z,99097.00
2019-03-10T11:56:00.780Z,99091.00
2019-03-10T11:58:46.620Z,99079.00
2019-03-10T12:01:52.112Z,99083.00
2019-03-10T12:04:57.908Z,99082.00
2019-03-10T12:07:45.199Z,99073.00
2019-03-10T12:10:13.405Z,99072.00
2019-03-10T12:12:41.471Z,99111.00
2019-03-10T12:15:10.302Z,99119.00
2019-03-10T12:17:38.492Z,99091.00
2019-03-10T12:20:08.118Z,99090.00
2019-03-10T12:22:36.151Z,99057.00
2019-03-10T12:25:05.104Z,99059.00
2019-03-10T12:27:33.290Z,99065.00
2019-03-10T12:30:01.313Z,99089.00
2019-03-10T12:32:29.357Z,99078.00
2019-03-10T12:34:57.395Z,99088.00
2019-03-10T12:37:25.416Z,99058.00
2019-03-10T12:39:53.439Z,99060.00
2019-03-10T12:42:21.750Z,99051.00
2019-03-10T12:44:49.910Z,99033.00
2019-03-10T12:47:17.932Z,99033.00
2019-03-10T12:49:45.981Z,99033.00
2019-03-10T12:52:13.999Z,99008.00
2019-03-10T12:54:42.240Z,98991.00
2019-03-10T12:57:10.429Z,98982.00
2019-03-10T12:59:38.896Z,98994.00
2019-03-10T13:02:06.957Z,99012.00
2019-03-10T13:04:35.454Z,99007.00
2019-03-10T13:07:03.577Z,99024.00
2019-03-10T13:09:31.623Z,99000.00
2019-03-10T13:11:59.930Z,99029.00
2019-03-10T13:14:27.901Z,99015.00
2019-03-10T13:16:55.903Z,99011.00
2019-03-10T13:19:24.195Z,99008.00
2019-03-10T13:21:52.244Z,99007.00
2019-03-10T13:24:20.299Z,98989.00
2019-03-10T13:26:48.370Z,98978.00
2019-03-10T13:29:16.403Z,98981.00
2019-03-10T13:31:47.411Z,98985.00
2019-03-10T13:34:15.549Z,99020.00
2019-03-10T13:36:43.908Z,99012.00
2019-03-10T13:39:12.848Z,99039.00
2019-03-10T13:41:43.150Z,99084.00
2019-03-10T13:44:11.361Z,99022.00
2019-03-10T13:46:39.764Z,99067.00
2019-03-10T13:49:08.881Z,99072.00
2019-03-10T13:51:37.112Z,99070.00
2019-03-10T13:54:06.260Z,99073.00
2019-03-10T13:56:35.026Z,99077.00
2019-03-10T13:59:03.430Z,99062.00
2019-03-10T14:01:31.764Z,99094.00
2019-03-10T14:04:00.621Z,99088.00
2019-03-10T14:06:29.098Z,99082.00
2019-03-10T14:08:57.541Z,99125.00
2019-03-10T14:11:26.247Z,99121.00
2019-03-10T14:13:57.933Z,99143.00
2019-03-10T14:16:40.583Z,99140.00
2019-03-10T14:19:09.716Z,99148.00
2019-03-10T14:21:43.129Z,99156.00
2019-03-10T14:24:12.824Z,99175.00
2019-03-10T14:26:41.339Z,99206.00
2019-03-10T14:29:10.076Z,99199.00
2019-03-10T14:31:38.771Z,99191.00
2019-03-10T14:34:07.974Z,99175.00
2019-03-10T14:36:36.764Z,99202.00
2019-03-10T14:39:06.766Z,99179.00
2019-03-10T14:41:37.201Z,99223.00
2019-03-10T14:44:05.422Z,99220.00
2019-03-10T14:46:34.098Z,99208.00
2019-03-10T14:49:04.132Z,99203.00
2019-03-10T14:51:32.844Z,99248.00
2019-03-10T14:54:04.180Z,99220.00
2019-03-10T14:56:32.824Z,99248.00
2019-03-10T14:59:00.993Z,99245.00
2019-03-10T15:01:30.123Z,99254.00
2019-03-10T15:03:58.512Z,99252.00
2019-03-10T15:06:27.613Z,99272.00
2019-03-10T15:08:55.901Z,99286.00
2019-03-10T15:11:24.091Z,99312.00
2019-03-10T15:13:55.786Z,99300.00
2019-03-10T15:16:24.028Z,99295.00
2019-03-10T15:18:52.150Z,99289.00
2019-03-10T15:21:20.328Z,99306.00
2019-03-10T15:23:56.219Z,99311.00
2019-03-10T15:26:24.540Z,99331.00
2019-03-10T15:28:52.863Z,99337.00
2019-03-10T15:31:21.085Z,99375.00
2019-03-10T15:33:49.283Z,99368.00
2019-03-10T15:36:20.583Z,99378.00
2019-03-10T15:38:47.854Z,99349.00
2019-03-10T15:41:15.926Z,99379.00
2019-03-10T15:43:44.172Z,99393.00
2019-03-10T15:46:12.625Z,99381.00
2019-03-10T15:48:40.846Z,99367.00
2019-03-10T15:51:08.955Z,99411.00
2019-03-10T15:53:38.146Z,99387.00
2019-03-10T15:56:06.606Z,99416.00
2019-03-10T15:58:35.125Z,99429.00
2019-03-10T16:01:04.225Z,99452.00
2019-03-10T16:03:33.187Z,99434.00
2019-03-10T16:06:02.676Z,99456.00
2019-03-10T16:08:32.745Z,99478.00
2019-03-10T16:11:03.254Z,99426.00
2019-03-10T16:13:31.677Z,99453.00
2019-03-10T16:16:01.663Z,99461.00
2019-03-10T16:18:31.093Z,99456.00
2019-03-10T16:20:59.401Z,99483.00
2019-03-10T16:23:28.153Z,99532.00
2019-03-10T16:25:56.638Z,99484.00
2019-03-10T16:28:24.967Z,99473.00
2019-03-10T16:30:55.756Z,99500.00
2019-03-10T16:33:25.537Z,99502.00
2019-03-10T16:35:54.298Z,99517.00
2019-03-10T16:38:22.721Z,99555.00
2019-03-10T16:40:51.268Z,99525.00
2019-03-10T16:43:19.777Z,99498.00
2019-03-10T16:45:49.065Z,99577.00
2019-03-10T16:48:17.591Z,99550.00
2019-03-10T16:50:45.986Z,99565.00
2019-03-10T16:53:14.476Z,99575.00
2019-03-10T16:55:43.218Z,99599.00
2019-03-10T16:58:12.460Z,99619.00
2019-03-10T17:00:43.717Z,99598.00
2019-03-10T17:03:13.122Z,99583.00
2019-03-10T17:05:41.614Z,99599.00
2019-03-10T17:08:09.970Z,99589.00
2019-03-10T17:10:38.167Z,99615.00
2019-03-10T17:13:06.427Z,99622.00
2019-03-10T17:15:46.497Z,99632.00
2019-03-10T17:18:15.792Z,99632.00
2019-03-10T17:20:44.179Z,99629.00
2019-03-10T17:23:13.980Z,99651.00
2019-03-10T17:25:42.469Z,99659.00
2019-03-10T17:28:10.737Z,99677.00
2019-03-10T17:30:38.981Z,99665.00
2019-03-10T17:33:07.224Z,99670.00
2019-03-10T17:35:39.118Z,99672.00
2019-03-10T17:38:07.439Z,99679.00
2019-03-10T17:40:35.549Z,99702.00
2019-03-10T17:43:08.180Z,99739.00
2019-03-10T17:45:37.026Z,99797.00
2019-03-10T17:48:05.236Z,99810.00
2019-03-10T17:50:33.755Z,99828.00
2019-03-10T17:53:01.950Z,99862.00
2019-03-10T17:55:30.463Z,99883.00
2019-03-10T17:57:59.000Z,99886.00
2019-03-10T18:00:28.163Z,99928.00
2019-03-10T18:02:57.117Z,99943.00
2019-03-10T18:05:28.625Z,99958.00
2019-03-10T18:07:58.809Z,99972.00
2019-03-10T18:10:28.318Z,100028.00
2019-03-10T18:12:56.905Z,99976.00
2019-03-10T18:15:25.256Z,99978.00
2019-03-10T18:17:54.492Z,99979.00
2019-03-10T18:20:23.974Z,99983.00
2019-03-10T18:22:52.268Z,100007.00
2019-03-10T18:25:20.630Z,100011.00
2019-03-10T18:27:49.190Z,99998.00
2019-03-10T18:30:18.108Z,100011.00
2019-03-10T18:32:46.633Z,99991.00
2019-03-10T18:35:15.807Z,99995.00
2019-03-10T18:37:44.705Z,99986.00
2019-03-10T18:40:16.456Z,99988.00
2019-03-10T18:42:45.230Z,100008.00
2019-03-10T18:45:16.919Z,100012.00
2019-03-10T18:47:46.842Z,100022.00
2019-03-10T18:50:17.040Z,100029.00
2019-03-10T18:52:45.281Z,100038.00
2019-03-10T18:55:13.871Z,100031.00
2019-03-10T18:57:42.138Z,100033.00
2019-03-10T19:00:19.438Z,100050.00
2019-03-10T19:02:50.220Z,100043.00
2019-03-10T19:05:19.523Z,100049.00
2019-03-10T19:07:49.349Z,100069.00
2019-03-10T19:10:18.194Z,100061.00
2019-03-10T19:12:47.003Z,100076.00
2019-03-10T19:15:19.449Z,100082.00
2019-03-10T19:17:47.965Z,100084.00
2019-03-10T19:20:18.335Z,100077.00
2019-03-10T19:22:50.438Z,100062.00
2019-03-10T19:25:21.561Z,100105.00
2019-03-10T19:27:55.932Z,100093.00
2019-03-10T19:30:28.067Z,100113.00
2019-03-10T19:32:57.613Z,100084.00
2019-03-10T19:35:26.773Z,100123.00
2019-03-10T19:37:55.180Z,100113.00
2019-03-10T19:40:23.670Z,100121.00
2019-03-10T19:42:51.894Z,100128.00
2019-03-10T19:45:20.419Z,100136.00
2019-03-10T19:47:48.769Z,100151.00
2019-03-10T19:50:16.980Z,100131.00
2019-03-10T19:52:45.242Z,100148.00
2019-03-10T19:55:14.070Z,100147.00
2019-03-10T19:57:42.713Z,100154.00
2019-03-10T20:00:13.845Z,100143.00
2019-03-10T20:02:42.264Z,100185.00
2019-03-10T20:05:13.278Z,100171.00
2019-03-10T20:07:41.693Z,100182.00
2019-03-10T20:10:11.313Z,100196.00
2019-03-10T20:12:39.692Z,100202.00
2019-03-10T20:15:11.350Z,100192.00
2019-03-10T20:17:39.587Z,100205.00
2019-03-10T20:20:11.280Z,100207.00
2019-03-10T20:22:39.448Z,100197.00
2019-03-10T20:25:08.484Z,100227.00
2019-03-10T20:27:36.764Z,100206.00
2019-03-10T20:30:05.663Z,100226.00
2019-03-10T20:32:34.932Z,100237.00
2019-03-10T20:35:03.397Z,100246.00
2019-03-10T20:37:33.158Z,100238.00
2019-03-10T20:40:01.582Z,100244.00
2019-03-10T20:42:29.897Z,100237.00
2019-03-10T20:44:58.171Z,100246.00
2019-03-10T20:47:26.362Z,100257.00
2019-03-10T20:49:54.588Z,100264.00
2019-03-10T20:52:22.797Z,100278.00
2019-03-10T20:54:50.849Z,100281.00
2019-03-10T20:57:19.305Z,100301.00
2019-03-10T20:59:47.566Z,100297.00
2019-03-10T21:02:15.980Z,100291.00
2019-03-10T21:04:44.384Z,100302.00
2019-03-10T21:07:12.853Z,100318.00
2019-03-10T21:09:42.048Z,100321.00
2019-03-10T21:12:10.152Z,100338.00
2019-03-10T21:14:38.296Z,100341.00
2019-03-10T21:17:06.677Z,100337.00
2019-03-10T21:19:34.859Z,100340.00
2019-03-10T21:22:02.917Z,100339.00
2019-03-10T21:24:31.308Z,100347.00
2019-03-10T21:26:59.555Z,100342.00
2019-03-10T21:29:27.845Z,100340.00
2019-03-10T21:31:56.026Z,100352.00
2019-03-10T21:34:25.182Z,100361.00
2019-03-10T21:36:53.294Z,100363.00
2019-03-10T21:39:21.449Z,100366.00
2019-03-10T21:41:49.667Z,100368.00
2019-03-10T21:44:26.273Z,100369.00
2019-03-10T21:46:49.942Z,100380.00
2019-03-10T21:49:18.087Z,100393.00
2019-03-10T21:51:46.540Z,100397.00
2019-03-10T21:54:17.294Z,100397.00
2019-03-10T21:56:45.430Z,100416.00
2019-03-10T21:59:13.897Z,100406.00
2019-03-10T22:01:41.917Z,100425.00
2019-03-10T22:04:09.982Z,100415.00
2019-03-10T22:06:45.868Z,100438.00
2019-03-10T22:09:14.348Z,100447.00
2019-03-10T22:11:44.514Z,100482.00
2019-03-10T22:14:15.852Z,100496.00
2019-03-10T22:17:09.984Z,100517.00
2019-03-10T22:19:40.374Z,100515.00
2019-03-10T22:22:08.606Z,100512.00
2019-03-10T22:24:38.856Z,100497.00
2019-03-10T22:27:09.980Z,100528.00
2019-03-10T22:29:38.178Z,100533.00
2019-03-10T22:32:10.695Z,100540.00
2019-03-10T22:34:40.244Z,100531.00
2019-03-10T22:37:24.517Z,100541.00
2019-03-10T22:40:01.113Z,100521.00
2019-03-10T22:42:33.880Z,100534.00
2019-03-10T22:45:02.041Z,100526.00
2019-03-10T22:47:37.784Z,100516.00
2019-03-10T22:50:07.037Z,100527.00
2019-03-10T22:52:36.158Z,100524.00
2019-03-10T22:55:04.514Z,100511.00
2019-03-10T22:57:32.598Z,100512.00
2019-03-10T23:00:00.603Z,100521.00
2019-03-10T23:02:28.751Z,100520.00
2019-03-10T23:04:57.770Z,100508.00
2019-03-10T23:07:25.905Z,100510.00
2019-03-10T23:09:53.936Z,100513.00
2019-03-10T23:12:23.914Z,100518.00
2019-03-10T23:14:51.980Z,100515.00
2019-03-10T23:17:20.256Z,100524.00
2019-03-10T23:19:48.558Z,100523.00
2019-03-10T23:22:16.745Z,100520.00
2019-03-10T23:24:44.695Z,100523.00
2019-03-10T23:27:12.889Z,100531.00
2019-03-10T23:29:40.844Z,100533.00
2019-03-10T23:32:08.928Z,100546.00
2019-03-10T23:34:36.907Z,100537.00
2019-03-10T23:37:04.934Z,100537.00
2019-03-10T23:39:34.241Z,100535.00
2019-03-10T23:42:03.794Z,100528.00
2019-03-10T23:44:31.924Z,100520.00
2019-03-10T23:47:00.474Z,100510.00
2019-03-10T23:49:29.304Z,100500.00
2019-03-10T23:52:23.614Z,100499.00
2019-03-10T23:54:51.910Z,100499.00
2019-03-10T23:57:19.844Z,100482.00
2019-03-10T23:59:47.814Z,100482.00
